Aeroporto :
LOGIN :

Iscrizione | Disclaimer

   EN    FR    IT 

 










Sommario :    VFR   VFR Marginale   IFR   IFR Intensivo   IFR Molto Intensivo
Visibilità : 
Base nubi : 
>= 8 km
>= 3000ft
5 / 8 km
1000 / 3000 ft
1500m / 5 km
500 / 1000 ft
800 / 1500m
200 / 500 ft
< 800m
< 200 ft
Simboli :   Temporali  Nebbia  Neve Forte  Precipitazioni Forti  Vento > 20 kt
SIGMETs :   Varie  Temporali  Ghiacco  Turbolenza  Onda orograficha  Ceneri Vulcaniche






- Altitudine del aeroporto : 870 ft
- Codice IATA : ETZ


LFJL - Metz Nancy Lorraine

ULTIMO METAR :
  • 142130Z AUTO 15011KT 9999 FEW027 SCT034 BKN130 06/05 Q1003 BECMG 22015G25KT

METARs OBSOLETI :
  • 142100Z AUTO 15010KT 9999 BKN034 OVC140 06/05 Q1004 BECMG 22015G25KT
  • 142030Z AUTO 18010KT 9999 BKN030 BKN037 BKN160 06/05 Q1004 BECMG 22015G25KT
  • 142000Z AUTO 21006KT 9999 FEW034 SCT180 06/05 Q1004 NOSIG
  • 141930Z AUTO 21009KT CAVOK 06/04 Q1004 NOSIG
  • 141900Z AUTO 22011KT CAVOK 06/05 Q1004 NOSIG
  • 141830Z AUTO 23008KT 9999 BKN026 BKN031 06/05 Q1004 NOSIG

TAF TAF LFJL
Valido dal 14 a 18 ore il 15 a 18 ore UTC


141700Z 1418/1518 24015G25KT 9999 SCT030 BKN040
BECMG 1419/1421 18010KT
BECMG 1422/1424 22015G25KT
TEMPO 1500/1508 23020G35KT 4000 RA BKN014



MetMap, La meteo Aeronautica in un colpo d'occhio ! - Copyright ORBIFLY Dicembre 2007 - Disclaimer

ORBIFLY MET'MAP TEAM :

Programmazione e sviluppo : Alexandra Zaïnal
Concezione : Baudouin d'Aumeries
Aiuto per la programmazione : Marc-Olivier Méhu
Supporto tecnico e logistico : Manuel Goepfert
Aiuto per la traduzione : Arnaldo La Scala

Contatto : metmap@orbifly.com




FONTI E CREDITI :

   NOAA